KR-0419 weather

Jinheung Majestry War Apartments Heliports
Busan, Busan Gwang'yeogsi, South Korea

Public forecast

Using degrees Celsius for public forecast. Weather courtesy of forecast.io.

METAR (pilot weather report)

Closest report is Gimhae International Airport, 6.8 nm (12.5 km) WNW. Retrieved 2019/09/19 18:00 UTC (19 minutes ago):

RKPK 191800Z 36007KT CAVOK 17/12 Q1016

TAF (pilot weather forecast)

Closest forecast is Gimhae International Airport, 6.8 nm (12.5 km) WNW. Retrieved 2019/09/19 18:00 UTC (19 minutes ago):

TAF RKPK 191700Z 1918/2024 03006KT 9999 SCT030 TN19/1921Z TX27/2006Z BECMG 2002/2003 03010KT